Time;durP1;ratioP1;P1;durP2;ratioP2;P2;SDS_P1;SDS_P2;PMS_P1;PMS_P2;Temp;Humidity;BMP_temperature;BMP_pressure;BME280_temperature;BME280_humidity;BME280_pressure;Samples;Min_cycle;Max_cycle;Signal;HPM_P1;HPM_P2
2023/08/26 00:01:11;;;;;;;34.35;18.35;;;16.80;99.90;;;;;;5042028;28;20342;-68
2023/08/26 00:03:36;;;;;;;34.65;18.77;;;16.80;99.90;;;;;;5041551;28;20049;-68
2023/08/26 00:06:02;;;;;;;34.33;18.95;;;16.70;99.90;;;;;;5052380;28;20044;-68
2023/08/26 00:08:27;;;;;;;35.75;19.35;;;16.70;99.90;;;;;;5053384;28;20037;-67
2023/08/26 00:10:53;;;;;;;34.95;19.25;;;16.70;99.90;;;;;;5050729;28;20045;-68
2023/08/26 00:13:18;;;;;;;37.20;18.55;;;16.60;99.90;;;;;;5050122;28;20473;-68
2023/08/26 00:15:44;;;;;;;38.28;19.20;;;16.60;99.90;;;;;;5031622;28;20436;-68
2023/08/26 00:18:11;;;;;;;32.25;17.98;;;16.60;99.90;;;;;;5051673;28;20469;-68
2023/08/26 00:20:38;;;;;;;35.10;17.98;;;16.60;99.90;;;;;;5035798;28;20400;-69
2023/08/26 00:23:04;;;;;;;35.13;18.20;;;16.60;99.90;;;;;;5036270;28;20429;-68
2023/08/26 00:25:30;;;;;;;31.08;17.80;;;16.50;99.90;;;;;;5016973;28;20069;-67
2023/08/26 00:27:56;;;;;;;32.45;17.13;;;16.50;99.90;;;;;;5042712;28;20472;-68
2023/08/26 00:30:21;;;;;;;34.90;18.10;;;16.40;99.90;;;;;;5041764;28;20033;-68
2023/08/26 00:32:47;;;;;;;35.53;18.45;;;16.40;99.90;;;;;;5043549;28;20067;-68
2023/08/26 00:35:13;;;;;;;33.10;17.35;;;16.40;99.90;;;;;;5037325;28;20156;-68
2023/08/26 00:37:38;;;;;;;32.38;17.17;;;16.40;99.90;;;;;;5043485;28;20037;-68
2023/08/26 00:40:04;;;;;;;29.13;15.93;;;16.40;99.90;;;;;;5047706;28;20060;-68
2023/08/26 00:42:37;;;;;;;29.40;15.52;;;16.30;99.90;;;;;;5047500;28;20090;-68
2023/08/26 00:45:06;;;;;;;29.98;16.02;;;16.40;99.90;;;;;;5032547;28;20041;-69
2023/08/26 00:47:32;;;;;;;26.08;14.05;;;16.30;99.90;;;;;;5033529;28;20094;-68
2023/08/26 00:49:57;;;;;;;28.25;15.63;;;16.30;99.90;;;;;;5037988;28;20041;-68
2023/08/26 00:52:24;;;;;;;24.13;14.95;;;16.30;99.90;;;;;;5047808;28;20140;-69
2023/08/26 00:54:50;;;;;;;25.35;13.63;;;16.20;99.90;;;;;;5023668;28;20064;-68
2023/08/26 00:57:15;;;;;;;23.92;13.88;;;16.20;99.90;;;;;;5033649;28;20045;-68
2023/08/26 00:59:41;;;;;;;22.88;12.90;;;16.20;99.90;;;;;;5034054;28;20063;-68
2023/08/26 01:02:08;;;;;;;23.30;13.15;;;16.10;99.90;;;;;;5047897;28;20047;-68
2023/08/26 01:04:33;;;;;;;22.85;12.02;;;16.10;99.90;;;;;;5036563;28;20033;-68
2023/08/26 01:06:59;;;;;;;20.77;12.05;;;16.10;99.90;;;;;;5052562;28;20041;-68
2023/08/26 01:09:25;;;;;;;20.50;11.85;;;16.10;99.90;;;;;;5042148;28;20033;-68
2023/08/26 01:12:21;;;;;;;20.15;10.82;;;16.00;99.90;;;;;;5036895;28;20053;-68
2023/08/26 01:15:00;;;;;;;19.00;11.38;;;15.90;99.90;;;;;;5030260;28;20065;-67
2023/08/26 01:17:26;;;;;;;18.13;10.68;;;15.90;99.90;;;;;;5036572;28;20060;-68
2023/08/26 01:19:54;;;;;;;18.92;10.68;;;15.90;99.90;;;;;;5041134;28;20064;-68
2023/08/26 01:22:23;;;;;;;19.45;10.48;;;15.80;99.90;;;;;;5049128;28;20037;-68
2023/08/26 01:24:49;;;;;;;15.85;10.45;;;15.80;99.90;;;;;;5047828;28;20106;-67
2023/08/26 01:27:15;;;;;;;16.33;10.70;;;15.80;99.90;;;;;;5049647;28;20047;-67
2023/08/26 01:29:40;;;;;;;18.20;10.70;;;15.80;99.90;;;;;;5034550;28;20033;-68
2023/08/26 01:32:25;;;;;;;20.20;11.38;;;15.80;99.90;;;;;;5043438;28;20056;-67
2023/08/26 01:34:54;;;;;;;16.58;10.32;;;15.80;99.90;;;;;;5034850;28;20090;-67
2023/08/26 01:37:22;;;;;;;18.17;11.02;;;15.70;99.90;;;;;;5037170;28;20129;-67
2023/08/26 01:39:50;;;;;;;19.80;11.75;;;15.70;99.90;;;;;;5041606;28;20067;-67
2023/08/26 01:42:19;;;;;;;20.15;10.68;;;15.70;99.90;;;;;;5045624;28;20040;-67
2023/08/26 01:44:45;;;;;;;18.55;10.45;;;15.70;99.90;;;;;;5038219;28;20145;-68
2023/08/26 01:47:11;;;;;;;19.58;11.25;;;15.70;99.90;;;;;;5033605;28;20120;-67
2023/08/26 01:49:36;;;;;;;19.35;10.00;;;15.70;99.90;;;;;;5040534;28;20128;-68
2023/08/26 01:52:02;;;;;;;17.80;9.68;;;15.60;99.90;;;;;;5037443;28;20124;-67
2023/08/26 01:54:28;;;;;;;17.40;10.52;;;15.60;99.90;;;;;;5038717;28;20048;-67
2023/08/26 01:56:53;;;;;;;15.52;9.55;;;15.60;99.90;;;;;;5050000;28;20115;-68
2023/08/26 01:59:19;;;;;;;17.33;9.18;;;15.60;99.90;;;;;;5032695;28;20124;-67
2023/08/26 02:01:44;;;;;;;18.15;10.23;;;15.50;99.90;;;;;;5030104;28;20041;-67
2023/08/26 02:04:10;;;;;;;15.23;9.32;;;15.50;99.90;;;;;;5038310;28;20038;-67
2023/08/26 02:06:38;;;;;;;16.77;9.40;;;15.50;99.90;;;;;;5029694;28;20029;-68
2023/08/26 02:09:04;;;;;;;16.13;9.07;;;15.50;99.90;;;;;;5044170;28;20052;-67
2023/08/26 02:11:29;;;;;;;17.00;8.88;;;15.40;99.90;;;;;;5047114;28;20041;-67
2023/08/26 02:13:55;;;;;;;13.20;8.48;;;15.40;99.90;;;;;;5034202;28;20441;-67
2023/08/26 02:16:20;;;;;;;17.95;8.65;;;15.30;99.90;;;;;;5044315;28;20063;-67
2023/08/26 02:18:46;;;;;;;14.13;8.90;;;15.30;99.90;;;;;;5044825;28;20133;-68
2023/08/26 02:21:12;;;;;;;16.58;9.38;;;15.20;99.90;;;;;;5050787;28;20110;-67
2023/08/26 02:23:37;;;;;;;15.85;9.10;;;15.20;99.90;;;;;;5039599;28;20040;-67
2023/08/26 02:26:03;;;;;;;15.68;8.75;;;15.10;99.90;;;;;;5033872;28;20029;-68
2023/08/26 02:28:28;;;;;;;13.55;8.43;;;15.10;99.90;;;;;;5031596;28;20049;-67
2023/08/26 02:30:54;;;;;;;12.98;7.63;;;15.10;99.90;;;;;;5040011;28;20040;-67
2023/08/26 02:33:19;;;;;;;13.02;8.48;;;15.10;99.90;;;;;;5050182;28;20041;-66
2023/08/26 02:35:48;;;;;;;12.57;8.30;;;15.00;99.90;;;;;;5028458;28;20059;-67
2023/08/26 02:38:14;;;;;;;13.90;8.85;;;15.00;99.90;;;;;;5035710;28;20041;-66
2023/08/26 02:40:40;;;;;;;18.55;9.50;;;15.00;99.90;;;;;;5035582;28;20132;-67
2023/08/26 02:43:05;;;;;;;17.17;8.98;;;15.00;99.90;;;;;;5039238;28;20065;-68
2023/08/26 02:45:31;;;;;;;18.17;8.75;;;15.00;99.90;;;;;;5040698;28;20151;-67
2023/08/26 02:47:59;;;;;;;13.15;8.40;;;15.00;99.90;;;;;;5030995;28;20069;-67
2023/08/26 02:50:25;;;;;;;14.15;8.98;;;15.00;99.90;;;;;;5029250;28;20025;-66
2023/08/26 02:52:51;;;;;;;16.27;8.77;;;14.90;99.90;;;;;;5043866;28;20137;-66
2023/08/26 02:55:16;;;;;;;15.15;8.73;;;14.90;99.90;;;;;;5043313;28;20041;-67
2023/08/26 02:57:42;;;;;;;13.60;8.57;;;14.80;99.90;;;;;;5037196;28;20041;-67
2023/08/26 03:00:09;;;;;;;16.38;8.70;;;14.80;99.90;;;;;;5040955;28;20132;-67
2023/08/26 03:02:35;;;;;;;13.95;8.50;;;14.80;99.90;;;;;;5033570;28;20041;-67
2023/08/26 03:05:01;;;;;;;15.32;8.43;;;14.70;99.90;;;;;;5020095;28;20504;-67
2023/08/26 03:07:27;;;;;;;10.43;7.47;;;14.70;99.90;;;;;;5044461;28;20124;-66
2023/08/26 03:09:53;;;;;;;16.55;8.43;;;14.70;99.90;;;;;;5038882;28;20119;-66
2023/08/26 03:12:18;;;;;;;11.75;8.35;;;14.70;99.90;;;;;;5049430;28;20090;-67
2023/08/26 03:14:44;;;;;;;15.65;8.18;;;14.70;99.90;;;;;;5040275;28;20124;-67
2023/08/26 03:17:09;;;;;;;16.60;8.68;;;14.70;99.90;;;;;;5049621;28;20047;-67
2023/08/26 03:19:35;;;;;;;11.43;8.25;;;14.70;99.90;;;;;;5046680;28;20041;-67
2023/08/26 03:22:01;;;;;;;14.57;8.82;;;14.80;99.90;;;;;;5046849;28;20095;-67
2023/08/26 03:24:27;;;;;;;15.20;8.13;;;14.80;99.90;;;;;;5039562;28;20033;-67
2023/08/26 03:26:52;;;;;;;13.30;8.13;;;14.70;99.90;;;;;;5040509;28;20053;-67
2023/08/26 03:29:18;;;;;;;13.82;8.73;;;14.70;99.90;;;;;;5008964;28;20041;-67
2023/08/26 03:31:44;;;;;;;20.55;9.13;;;14.70;99.90;;;;;;5027709;28;20052;-67
2023/08/26 03:34:09;;;;;;;17.30;8.98;;;14.60;99.90;;;;;;5036896;28;20354;-67
2023/08/26 03:36:35;;;;;;;13.35;8.05;;;14.60;99.90;;;;;;5047990;28;20044;-66
2023/08/26 03:39:00;;;;;;;13.43;7.90;;;14.60;99.90;;;;;;5046812;28;20092;-67
2023/08/26 03:41:26;;;;;;;15.18;8.23;;;14.60;99.90;;;;;;5032604;28;20374;-66
2023/08/26 03:43:52;;;;;;;15.55;8.13;;;14.50;99.90;;;;;;5040525;28;20063;-68
2023/08/26 03:46:17;;;;;;;14.48;7.78;;;14.50;99.90;;;;;;5029682;28;20061;-66
2023/08/26 03:48:43;;;;;;;11.07;7.85;;;14.40;99.90;;;;;;5022153;28;20142;-66
2023/08/26 03:51:09;;;;;;;12.70;8.00;;;14.40;99.90;;;;;;5058507;28;20058;-67
2023/08/26 03:53:35;;;;;;;12.85;7.18;;;14.30;99.90;;;;;;5035661;28;20663;-66
2023/08/26 03:56:01;;;;;;;10.52;6.55;;;14.30;99.90;;;;;;5033149;28;20120;-68
2023/08/26 03:58:27;;;;;;;13.95;7.10;;;14.20;99.90;;;;;;5030242;28;20053;-67
2023/08/26 04:01:01;;;;;;;14.23;6.85;;;14.20;99.90;;;;;;5025165;28;20037;-66
2023/08/26 04:03:26;;;;;;;11.52;6.80;;;14.10;99.90;;;;;;5046064;28;20032;-66
2023/08/26 04:06:03;;;;;;;11.43;7.40;;;14.00;99.90;;;;;;5047913;28;20523;-66
2023/08/26 04:08:33;;;;;;;10.82;6.90;;;13.90;99.90;;;;;;5048084;28;20045;-66
2023/08/26 04:11:00;;;;;;;10.90;6.13;;;13.80;99.90;;;;;;5044219;28;20059;-66
2023/08/26 04:13:29;;;;;;;8.77;5.97;;;13.80;99.90;;;;;;5028042;28;20046;-67
2023/08/26 04:16:03;;;;;;;9.57;6.10;;;13.70;99.90;;;;;;5010457;28;20042;-66
2023/08/26 04:18:30;;;;;;;8.43;6.05;;;13.70;99.90;;;;;;5031339;28;20120;-66
2023/08/26 04:20:56;;;;;;;9.82;6.38;;;13.60;99.90;;;;;;5049411;28;20392;-66
2023/08/26 04:23:22;;;;;;;10.05;6.38;;;13.50;99.90;;;;;;5039356;28;20048;-66
2023/08/26 04:25:48;;;;;;;7.90;5.80;;;13.50;99.90;;;;;;5032323;28;20052;-66
2023/08/26 04:28:16;;;;;;;9.52;5.13;;;13.40;99.90;;;;;;5035541;28;20140;-66
2023/08/26 04:30:42;;;;;;;9.00;6.10;;;13.40;99.90;;;;;;5028433;28;20038;-66
2023/08/26 04:33:08;;;;;;;8.52;6.13;;;13.40;99.90;;;;;;5044040;28;20688;-66
2023/08/26 04:35:34;;;;;;;8.77;6.00;;;13.40;99.90;;;;;;5032387;28;20038;-66
2023/08/26 04:38:03;;;;;;;8.95;6.10;;;13.40;99.90;;;;;;5043315;28;20029;-66
2023/08/26 04:40:29;;;;;;;9.63;6.22;;;13.40;99.90;;;;;;5043224;28;20465;-66
2023/08/26 04:42:56;;;;;;;9.45;6.10;;;13.40;99.90;;;;;;5033184;28;20075;-66
2023/08/26 04:45:22;;;;;;;11.73;6.35;;;13.40;99.90;;;;;;5038563;28;20033;-66
2023/08/26 04:47:48;;;;;;;13.00;6.97;;;13.30;99.90;;;;;;5044021;28;20045;-66
2023/08/26 04:50:14;;;;;;;14.00;7.40;;;13.30;99.90;;;;;;5048334;28;20078;-66
2023/08/26 04:52:40;;;;;;;10.05;6.60;;;13.40;99.90;;;;;;5050370;28;20057;-66
2023/08/26 04:55:07;;;;;;;9.30;6.78;;;13.40;99.90;;;;;;5043005;28;20042;-66
2023/08/26 04:57:33;;;;;;;12.88;7.35;;;13.50;99.90;;;;;;5045651;28;20029;-66
2023/08/26 04:59:59;;;;;;;11.07;6.78;;;13.60;99.90;;;;;;5043587;28;20598;-66
2023/08/26 05:02:24;;;;;;;11.13;6.10;;;13.70;99.90;;;;;;5044668;28;20136;-66
2023/08/26 05:04:50;;;;;;;11.77;7.07;;;13.80;99.90;;;;;;5038403;28;20045;-66
2023/08/26 05:07:16;;;;;;;14.10;7.38;;;13.80;99.90;;;;;;5038201;28;20095;-66
2023/08/26 05:09:42;;;;;;;12.07;7.40;;;13.80;99.90;;;;;;5042233;28;20040;-66
2023/08/26 05:12:08;;;;;;;12.13;8.25;;;13.90;99.90;;;;;;5045878;28;20095;-66
2023/08/26 05:14:34;;;;;;;12.10;6.85;;;14.00;99.90;;;;;;5038006;28;20117;-66
2023/08/26 05:16:59;;;;;;;14.30;7.22;;;14.00;99.90;;;;;;5039700;28;20131;-66
2023/08/26 05:19:25;;;;;;;11.82;7.72;;;14.10;99.90;;;;;;5011850;28;20799;-66
2023/08/26 05:21:51;;;;;;;13.45;7.95;;;14.20;99.90;;;;;;5041386;28;20499;-67
2023/08/26 05:24:16;;;;;;;13.40;7.90;;;14.30;99.90;;;;;;5021749;28;20038;-66
2023/08/26 05:26:43;;;;;;;14.80;8.00;;;14.40;99.90;;;;;;5039781;28;20703;-66
2023/08/26 05:29:09;;;;;;;14.57;8.57;;;14.40;99.90;;;;;;5040334;28;20041;-67
2023/08/26 05:31:35;;;;;;;13.80;7.90;;;14.40;99.90;;;;;;5044047;28;20487;-66
2023/08/26 05:34:01;;;;;;;15.15;8.95;;;14.50;99.90;;;;;;5035970;28;20091;-66
2023/08/26 05:36:26;;;;;;;14.00;8.30;;;14.60;99.90;;;;;;5047062;28;20041;-66
2023/08/26 05:38:53;;;;;;;12.02;7.97;;;14.60;99.90;;;;;;5043285;28;20045;-66
2023/08/26 05:41:18;;;;;;;17.30;8.02;;;14.60;99.90;;;;;;5050253;28;20478;-66
2023/08/26 05:43:44;;;;;;;12.00;7.75;;;14.60;99.90;;;;;;5033829;28;20048;-67
2023/08/26 05:46:09;;;;;;;14.55;8.40;;;14.70;99.90;;;;;;5035068;28;20067;-67
2023/08/26 05:48:35;;;;;;;14.23;9.73;;;14.80;99.90;;;;;;5033174;28;20041;-66
2023/08/26 05:51:01;;;;;;;15.85;9.40;;;14.80;99.90;;;;;;5035007;28;20496;-67
2023/08/26 05:53:28;;;;;;;16.60;9.93;;;14.80;99.90;;;;;;5039860;28;20568;-67
2023/08/26 05:55:54;;;;;;;17.00;9.85;;;14.90;99.90;;;;;;5035952;28;20045;-67
2023/08/26 05:58:20;;;;;;;19.52;9.35;;;14.90;99.90;;;;;;5033096;28;20049;-66
2023/08/26 06:00:47;;;;;;;14.75;9.40;;;14.90;99.90;;;;;;5030099;28;20128;-66
2023/08/26 06:03:12;;;;;;;16.88;9.07;;;14.90;99.90;;;;;;5034899;28;20029;-66
2023/08/26 06:05:38;;;;;;;15.88;10.35;;;15.00;99.90;;;;;;5043891;28;20082;-66
2023/08/26 06:08:05;;;;;;;13.02;9.50;;;15.00;99.90;;;;;;5032626;28;20033;-67
2023/08/26 06:10:31;;;;;;;17.00;9.68;;;15.00;99.90;;;;;;5026913;28;20048;-66
2023/08/26 06:12:57;;;;;;;16.90;9.80;;;15.10;99.90;;;;;;5026418;28;20040;-66
2023/08/26 06:15:22;;;;;;;14.68;9.13;;;15.20;99.90;;;;;;5027681;28;20120;-66
2023/08/26 06:17:48;;;;;;;17.70;10.15;;;15.20;99.90;;;;;;5029181;28;20497;-66
2023/08/26 06:20:13;;;;;;;18.15;10.25;;;15.20;99.90;;;;;;5040295;28;20036;-66
2023/08/26 06:22:39;;;;;;;17.27;9.57;;;15.30;99.90;;;;;;5038877;28;20377;-67
2023/08/26 06:25:05;;;;;;;19.50;10.65;;;15.30;99.90;;;;;;5030458;28;20037;-67
2023/08/26 06:27:31;;;;;;;17.88;10.23;;;15.40;99.90;;;;;;5044284;28;20487;-67
2023/08/26 06:30:03;;;;;;;18.13;10.85;;;15.40;99.90;;;;;;5045758;28;20369;-67
2023/08/26 06:32:29;;;;;;;15.90;10.75;;;15.40;99.90;;;;;;5041078;28;20234;-66
2023/08/26 06:34:54;;;;;;;18.67;9.90;;;15.40;99.90;;;;;;5044536;28;20045;-67
2023/08/26 06:37:20;;;;;;;19.33;10.98;;;15.40;99.90;;;;;;5042976;28;20044;-66
2023/08/26 06:39:45;;;;;;;17.23;10.50;;;15.40;99.90;;;;;;5038747;28;20139;-66
2023/08/26 06:42:11;;;;;;;19.33;10.05;;;15.50;99.90;;;;;;5032745;28;20090;-66
2023/08/26 06:44:37;;;;;;;19.15;11.63;;;15.50;99.90;;;;;;5038836;28;20037;-66
2023/08/26 06:47:03;;;;;;;18.67;11.07;;;15.50;99.90;;;;;;5032840;28;20060;-66
2023/08/26 06:49:28;;;;;;;18.27;10.98;;;15.50;99.90;;;;;;5041219;28;20114;-67
2023/08/26 06:51:54;;;;;;;20.90;10.85;;;15.60;99.90;;;;;;5033895;28;20053;-67
2023/08/26 06:54:19;;;;;;;19.90;11.95;;;15.70;99.90;;;;;;5015331;28;20049;-66
2023/08/26 06:56:45;;;;;;;18.65;11.25;;;15.60;99.90;;;;;;5024287;28;20389;-67
2023/08/26 06:59:11;;;;;;;16.38;11.20;;;15.70;99.90;;;;;;5045368;28;20041;-66
2023/08/26 07:01:37;;;;;;;21.27;11.68;;;15.70;99.90;;;;;;5045302;28;20057;-66
2023/08/26 07:04:06;;;;;;;19.58;11.55;;;15.70;99.90;;;;;;5048018;28;20641;-66
2023/08/26 07:06:33;;;;;;;19.88;12.57;;;15.80;99.90;;;;;;5041450;28;20033;-66
2023/08/26 07:08:58;;;;;;;22.10;12.40;;;15.80;99.90;;;;;;5034670;28;20077;-66
2023/08/26 07:11:24;;;;;;;20.35;11.65;;;15.90;99.90;;;;;;5037614;28;20064;-66
2023/08/26 07:13:50;;;;;;;16.67;11.50;;;15.90;99.90;;;;;;5029834;28;20141;-65
2023/08/26 07:16:15;;;;;;;19.30;12.10;;;16.00;99.90;;;;;;5028083;28;20099;-66
2023/08/26 07:18:41;;;;;;;19.80;12.38;;;16.00;99.90;;;;;;5041915;28;20041;-65
2023/08/26 07:21:06;;;;;;;18.38;11.95;;;16.10;99.90;;;;;;5048411;28;20072;-66
2023/08/26 07:23:32;;;;;;;19.65;12.15;;;16.10;99.90;;;;;;5031304;28;20466;-65
2023/08/26 07:25:58;;;;;;;20.38;12.25;;;16.20;99.90;;;;;;5037444;28;20083;-66
2023/08/26 07:28:23;;;;;;;20.08;13.10;;;16.30;99.90;;;;;;5038522;28;20136;-66
2023/08/26 07:30:51;;;;;;;24.25;13.15;;;16.40;99.90;;;;;;5025323;28;20041;-65
2023/08/26 07:33:16;;;;;;;22.58;13.20;;;16.40;99.90;;;;;;5035954;28;20547;-65
2023/08/26 07:35:42;;;;;;;23.23;13.20;;;16.40;99.90;;;;;;5032765;28;20069;-65
2023/08/26 07:38:08;;;;;;;20.10;13.10;;;16.40;99.90;;;;;;5038403;28;20041;-65
2023/08/26 07:40:33;;;;;;;21.25;13.50;;;16.40;99.90;;;;;;5031973;28;20379;-66
2023/08/26 07:42:59;;;;;;;23.60;15.25;;;16.40;99.90;;;;;;5036429;28;20064;-65
2023/08/26 07:45:25;;;;;;;23.00;14.57;;;16.30;99.90;;;;;;5030736;28;20068;-65
2023/08/26 07:47:51;;;;;;;20.52;14.00;;;16.30;99.90;;;;;;5030978;28;20144;-65
2023/08/26 07:50:17;;;;;;;22.30;14.23;;;16.40;99.90;;;;;;5012584;28;20039;-65
2023/08/26 07:52:42;;;;;;;23.40;15.02;;;16.50;99.90;;;;;;5033880;28;20060;-65
2023/08/26 07:55:08;;;;;;;24.05;15.02;;;16.70;99.90;;;;;;5030424;28;20061;-65
2023/08/26 07:57:34;;;;;;;23.23;14.98;;;17.00;99.90;;;;;;5038735;28;20037;-65
2023/08/26 08:00:00;;;;;;;25.80;14.55;;;17.20;99.90;;;;;;5027809;28;20517;-66
2023/08/26 08:02:25;;;;;;;21.60;14.27;;;17.30;99.90;;;;;;5037158;28;20033;-65
2023/08/26 08:04:51;;;;;;;27.48;16.90;;;17.30;99.90;;;;;;5032318;28;20111;-65
2023/08/26 08:07:16;;;;;;;21.23;14.90;;;17.40;99.90;;;;;;5041869;28;20049;-65
2023/08/26 08:09:42;;;;;;;23.25;15.05;;;17.40;99.90;;;;;;5047027;28;20581;-66
2023/08/26 08:12:11;;;;;;;24.10;15.32;;;17.50;99.90;;;;;;5033956;28;20041;-66
2023/08/26 08:14:36;;;;;;;25.58;15.18;;;17.40;99.90;;;;;;5009516;28;20140;-65
2023/08/26 08:17:03;;;;;;;19.50;13.93;;;17.20;99.90;;;;;;5021109;28;20562;-65
2023/08/26 08:19:28;;;;;;;19.73;14.20;;;17.00;99.90;;;;;;5021139;28;20097;-66
2023/08/26 08:21:54;;;;;;;19.63;13.50;;;16.90;99.90;;;;;;5040434;28;20527;-65
2023/08/26 08:24:19;;;;;;;19.08;13.43;;;17.10;99.90;;;;;;5034780;28;20385;-66
2023/08/26 08:26:45;;;;;;;19.38;12.85;;;17.40;99.90;;;;;;5032507;28;20434;-66
2023/08/26 08:29:10;;;;;;;19.63;12.40;;;17.40;99.90;;;;;;5041554;28;20588;-66
2023/08/26 08:31:36;;;;;;;19.38;14.00;;;17.50;99.90;;;;;;5037516;28;20037;-66
2023/08/26 08:34:03;;;;;;;19.50;13.85;;;18.00;99.90;;;;;;5051059;28;20084;-66
2023/08/26 08:36:29;;;;;;;15.50;12.38;;;18.60;99.90;;;;;;5029685;28;20037;-66
2023/08/26 08:38:56;;;;;;;17.58;12.25;;;19.00;99.90;;;;;;5035467;28;20102;-67
2023/08/26 08:41:22;;;;;;;17.90;12.00;;;19.50;99.90;;;;;;5032419;28;20114;-67
2023/08/26 08:43:49;;;;;;;15.43;11.23;;;19.90;99.90;;;;;;5033621;28;20049;-67
2023/08/26 08:46:16;;;;;;;18.27;12.68;;;20.60;99.90;;;;;;5047158;28;20063;-67
2023/08/26 08:48:42;;;;;;;14.88;11.30;;;20.80;99.90;;;;;;5046715;28;20071;-68
2023/08/26 08:51:10;;;;;;;15.65;11.40;;;21.00;99.90;;;;;;5018187;28;20092;-68
2023/08/26 08:53:45;;;;;;;14.90;11.02;;;20.60;96.40;;;;;;5035697;28;20041;-68
2023/08/26 08:56:16;;;;;;;13.90;11.43;;;20.10;99.90;;;;;;5043667;28;20488;-68
2023/08/26 08:58:47;;;;;;;15.57;11.38;;;19.80;99.90;;;;;;5046927;28;20049;-66
2023/08/26 09:01:17;;;;;;;13.95;10.80;;;19.40;99.90;;;;;;5052267;28;20090;-67
2023/08/26 09:03:44;;;;;;;14.50;10.25;;;19.50;99.90;;;;;;5051942;28;20625;-66
2023/08/26 09:06:10;;;;;;;17.02;11.57;;;19.60;99.90;;;;;;5041687;28;20500;-68
2023/08/26 09:08:36;;;;;;;14.30;10.63;;;20.00;99.90;;;;;;5043830;28;20033;-67
2023/08/26 09:11:02;;;;;;;16.38;10.15;;;20.20;99.90;;;;;;5048285;28;20904;-68
2023/08/26 09:13:28;;;;;;;15.20;10.00;;;20.30;96.10;;;;;;5049928;28;20056;-67
2023/08/26 09:15:53;;;;;;;11.52;10.07;;;20.30;96.50;;;;;;5049129;28;20137;-67
2023/08/26 09:18:19;;;;;;;13.50;10.20;;;20.30;96.20;;;;;;5045135;28;20110;-68
2023/08/26 09:20:47;;;;;;;14.68;10.35;;;19.90;96.20;;;;;;5033545;28;20496;-67
2023/08/26 09:23:14;;;;;;;15.02;9.35;;;19.60;91.80;;;;;;5036610;28;20047;-67
2023/08/26 09:25:53;;;;;;;12.02;8.88;;;19.50;95.20;;;;;;5031909;28;20045;-69
2023/08/26 09:28:20;;;;;;;11.05;9.13;;;19.40;92.30;;;;;;5032811;28;20144;-68
2023/08/26 09:31:05;;;;;;;10.23;8.93;;;19.70;95.60;;;;;;5025953;28;20141;-67
2023/08/26 09:33:30;;;;;;;13.13;8.27;;;19.90;92.90;;;;;;5032039;28;20744;-67
2023/08/26 09:35:56;;;;;;;15.75;9.18;;;19.90;94.60;;;;;;5038096;28;20037;-67
2023/08/26 09:38:22;;;;;;;16.58;9.63;;;20.00;94.30;;;;;;5040901;28;20037;-68
2023/08/26 09:40:47;;;;;;;12.93;8.70;;;19.70;93.50;;;;;;5025343;28;20429;-68
2023/08/26 09:43:13;;;;;;;14.80;8.88;;;19.60;93.30;;;;;;5037234;28;20060;-67
2023/08/26 09:45:39;;;;;;;13.20;8.68;;;19.20;93.40;;;;;;5043392;28;20048;-67
2023/08/26 09:48:07;;;;;;;11.98;8.35;;;19.20;93.80;;;;;;5042555;28;20120;-66
2023/08/26 09:50:33;;;;;;;10.88;7.65;;;19.40;94.10;;;;;;5039169;28;20047;-67
2023/08/26 09:52:59;;;;;;;15.10;9.07;;;19.60;93.90;;;;;;5045209;28;20071;-67
2023/08/26 09:55:25;;;;;;;9.57;8.25;;;19.80;93.50;;;;;;5047136;28;20049;-67
2023/08/26 09:57:54;;;;;;;13.10;8.27;;;20.00;93.10;;;;;;5051579;28;20041;-68
2023/08/26 10:00:20;;;;;;;12.38;8.20;;;20.00;92.20;;;;;;5041756;28;20663;-68
2023/08/26 10:02:47;;;;;;;13.48;8.35;;;19.80;92.00;;;;;;5047250;28;20041;-67
2023/08/26 10:05:17;;;;;;;10.38;7.85;;;19.80;92.20;;;;;;5033000;28;20044;-66
2023/08/26 10:07:47;;;;;;;10.83;7.53;;;19.70;92.30;;;;;;5029801;28;20057;-68
2023/08/26 10:10:36;;;;;;;11.05;7.35;;;19.90;92.20;;;;;;5038873;28;20394;-67
2023/08/26 10:13:06;;;;;;;10.15;7.55;;;20.00;89.50;;;;;;5033292;28;20049;-69
2023/08/26 10:15:33;;;;;;;12.80;7.97;;;20.00;91.50;;;;;;5024390;28;20749;-67
2023/08/26 10:18:11;;;;;;;7.85;6.82;;;20.10;91.10;;;;;;5036860;28;20076;-67
2023/08/26 10:20:38;;;;;;;10.07;7.18;;;20.30;90.20;;;;;;5029132;28;20128;-68
2023/08/26 10:23:06;;;;;;;11.23;6.88;;;20.50;90.80;;;;;;5013458;28;20084;-68
2023/08/26 10:25:32;;;;;;;11.45;6.97;;;20.80;90.90;;;;;;5030557;28;20120;-68
2023/08/26 10:28:00;;;;;;;7.85;5.82;;;20.80;90.70;;;;;;5043509;28;20129;-67
2023/08/26 10:30:26;;;;;;;9.40;5.57;;;20.70;88.60;;;;;;5031167;28;20041;-67
2023/08/26 10:33:02;;;;;;;10.48;5.70;;;20.60;89.80;;;;;;5034886;28;20036;-67
2023/08/26 10:35:28;;;;;;;12.40;5.43;;;20.50;88.50;;;;;;5051077;28;20075;-67
2023/08/26 10:38:13;;;;;;;7.80;5.25;;;20.30;90.30;;;;;;5050960;28;20116;-67
2023/08/26 10:40:39;;;;;;;10.07;4.97;;;20.10;87.60;;;;;;5044410;28;20044;-67
2023/08/26 10:43:06;;;;;;;8.77;5.03;;;19.90;90.80;;;;;;5047742;28;20040;-67
2023/08/26 10:45:32;;;;;;;6.82;3.70;;;19.90;90.60;;;;;;5026953;28;20037;-67
2023/08/26 10:47:58;;;;;;;7.20;4.22;;;19.90;90.50;;;;;;5034690;28;20045;-67
2023/08/26 10:50:28;;;;;;;9.30;4.22;;;19.90;90.90;;;;;;5034678;28;20043;-67
2023/08/26 10:53:19;;;;;;;12.30;3.47;;;19.90;90.70;;;;;;5044204;28;20148;-67
2023/08/26 10:55:47;;;;;;;6.60;3.17;;;19.80;88.50;;;;;;5028345;28;20534;-67
2023/08/26 10:58:18;;;;;;;8.95;2.90;;;19.90;90.20;;;;;;5037891;28;20516;-70
2023/08/26 11:00:53;;;;;;;4.70;2.42;;;20.10;88.70;;;;;;5045220;28;20041;-68
2023/08/26 11:03:23;;;;;;;2.80;1.70;;;20.30;86.30;;;;;;5021954;28;20041;-67
2023/08/26 11:06:05;;;;;;;3.17;1.92;;;20.50;82.90;;;;;;5043571;28;20591;-67
2023/08/26 11:08:31;;;;;;;2.95;1.52;;;20.70;80.70;;;;;;5026776;28;20166;-68
2023/08/26 11:10:57;;;;;;;7.32;2.63;;;20.70;83.40;;;;;;5033944;28;20140;-68
2023/08/26 11:13:23;;;;;;;4.07;1.77;;;20.90;80.70;;;;;;5037967;28;20120;-68
2023/08/26 11:15:50;;;;;;;8.70;1.88;;;20.90;79.70;;;;;;5015315;28;20570;-67
2023/08/26 11:18:16;;;;;;;3.25;1.80;;;20.70;78.40;;;;;;5032286;28;20464;-68
2023/08/26 11:20:44;;;;;;;5.10;1.98;;;20.70;78.80;;;;;;5032329;28;20075;-66
2023/08/26 11:23:10;;;;;;;3.83;1.42;;;20.80;77.70;;;;;;5031581;28;20045;-67
2023/08/26 11:25:37;;;;;;;4.60;1.75;;;20.90;77.30;;;;;;5027793;28;20038;-68
2023/08/26 11:28:05;;;;;;;5.95;1.70;;;20.80;74.70;;;;;;5015808;28;20039;-68
2023/08/26 11:30:36;;;;;;;3.10;1.50;;;20.70;76.50;;;;;;5032573;28;20102;-67
2023/08/26 11:33:11;;;;;;;4.70;1.60;;;20.60;76.10;;;;;;5046565;28;20047;-68
2023/08/26 11:35:40;;;;;;;4.00;1.15;;;20.80;74.70;;;;;;5053609;28;20128;-67
2023/08/26 11:38:07;;;;;;;4.77;1.30;;;21.00;75.20;;;;;;5048125;28;20037;-67
2023/08/26 11:40:33;;;;;;;4.30;1.13;;;21.20;75.50;;;;;;5045956;28;20037;-67
2023/08/26 11:43:04;;;;;;;2.65;1.45;;;21.50;75.20;;;;;;5034118;28;20045;-68
2023/08/26 11:45:29;;;;;;;3.78;1.60;;;21.50;75.00;;;;;;5047855;28;20190;-67
2023/08/26 11:47:55;;;;;;;3.90;1.33;;;21.40;74.30;;;;;;5027367;28;20049;-67
2023/08/26 11:50:22;;;;;;;5.00;1.15;;;21.30;74.10;;;;;;5050616;28;20083;-68
2023/08/26 11:52:47;;;;;;;2.33;1.25;;;20.90;74.20;;;;;;5048928;28;20149;-67
2023/08/26 11:55:13;;;;;;;3.42;1.45;;;20.80;74.30;;;;;;5049632;28;20056;-68
2023/08/26 11:57:40;;;;;;;3.15;1.10;;;20.90;73.00;;;;;;5049048;28;20653;-68
2023/08/26 12:00:16;;;;;;;4.47;1.63;;;20.80;73.90;;;;;;5045763;28;20037;-68
2023/08/26 12:02:52;;;;;;;1.95;1.20;;;20.90;74.60;;;;;;5025932;28;20076;-67
2023/08/26 12:05:19;;;;;;;2.30;1.13;;;20.70;73.10;;;;;;5051818;28;20427;-69
2023/08/26 12:07:50;;;;;;;4.28;1.38;;;20.60;72.70;;;;;;5049762;28;20334;-68
2023/08/26 12:10:19;;;;;;;2.70;1.15;;;20.50;74.10;;;;;;5052538;28;20124;-68
2023/08/26 12:12:46;;;;;;;3.30;1.17;;;20.60;75.00;;;;;;5038836;28;20045;-68
2023/08/26 12:15:14;;;;;;;2.53;1.27;;;20.80;75.60;;;;;;5028554;28;20103;-68
2023/08/26 12:17:45;;;;;;;1.75;0.80;;;20.80;74.20;;;;;;5048005;28;20029;-67
2023/08/26 12:20:24;;;;;;;2.38;1.05;;;21.20;73.10;;;;;;5050419;28;20113;-69
2023/08/26 12:22:51;;;;;;;1.70;0.90;;;21.50;68.10;;;;;;5050515;28;20041;-70
2023/08/26 12:25:23;;;;;;;2.15;0.90;;;21.50;71.40;;;;;;5030931;28;20041;-67
2023/08/26 12:27:49;;;;;;;1.83;0.70;;;21.60;70.80;;;;;;5034181;28;20098;-67
2023/08/26 12:30:14;;;;;;;1.23;0.88;;;21.90;71.70;;;;;;5028446;28;20042;-67
2023/08/26 12:32:40;;;;;;;2.63;1.10;;;22.10;71.10;;;;;;5045836;28;20492;-69
2023/08/26 12:35:06;;;;;;;1.00;0.80;;;22.40;69.20;;;;;;5043816;28;20041;-70